sensor_id;sensor_type;location;lat;lon;timestamp;pressure;altitude;pressure_sealevel;temperature;humidity
11912;BME280;6016;41.928;25.556;2024-03-06T00:01:00;98828.09;;;10.08;87.43
11912;BME280;6016;41.928;25.556;2024-03-06T00:03:27;98773.00;;;9.77;86.79
11912;BME280;6016;41.928;25.556;2024-03-06T00:05:54;98859.94;;;10.34;86.62
11912;BME280;6016;41.928;25.556;2024-03-06T00:08:21;98857.09;;;10.18;87.47
11912;BME280;6016;41.928;25.556;2024-03-06T00:10:49;98862.59;;;10.24;87.59
11912;BME280;6016;41.928;25.556;2024-03-06T00:13:16;98863.28;;;10.26;86.83
11912;BME280;6016;41.928;25.556;2024-03-06T00:15:43;98857.72;;;10.30;87.67
11912;BME280;6016;41.928;25.556;2024-03-06T00:18:10;98872.72;;;10.19;87.78
11912;BME280;6016;41.928;25.556;2024-03-06T00:20:37;98752.69;;;9.49;87.67
11912;BME280;6016;41.928;25.556;2024-03-06T00:23:06;98859.97;;;10.24;87.66
11912;BME280;6016;41.928;25.556;2024-03-06T00:25:33;98862.88;;;10.31;88.20
11912;BME280;6016;41.928;25.556;2024-03-06T00:28:01;98810.66;;;9.97;87.66
11912;BME280;6016;41.928;25.556;2024-03-06T00:30:28;98870.19;;;10.37;88.30
11912;BME280;6016;41.928;25.556;2024-03-06T00:32:55;98854.38;;;10.37;88.21
11912;BME280;6016;41.928;25.556;2024-03-06T00:35:22;98860.63;;;10.36;88.45
11912;BME280;6016;41.928;25.556;2024-03-06T00:37:51;98860.22;;;10.31;88.08
11912;BME280;6016;41.928;25.556;2024-03-06T00:40:18;98856.44;;;10.34;88.39
11912;BME280;6016;41.928;25.556;2024-03-06T00:42:45;98851.19;;;10.34;88.82
11912;BME280;6016;41.928;25.556;2024-03-06T00:45:15;98636.44;;;8.96;87.55
11912;BME280;6016;41.928;25.556;2024-03-06T00:47:42;98855.22;;;10.28;88.20
11912;BME280;6016;41.928;25.556;2024-03-06T00:50:09;98860.66;;;10.26;88.41
11912;BME280;6016;41.928;25.556;2024-03-06T00:52:36;98858.16;;;10.25;88.62
11912;BME280;6016;41.928;25.556;2024-03-06T00:55:04;98853.59;;;10.17;88.00
11912;BME280;6016;41.928;25.556;2024-03-06T00:57:32;98856.91;;;10.19;88.18
11912;BME280;6016;41.928;25.556;2024-03-06T00:59:59;98866.91;;;10.25;88.21
11912;BME280;6016;41.928;25.556;2024-03-06T01:02:27;98867.88;;;10.24;88.07
11912;BME280;6016;41.928;25.556;2024-03-06T01:04:54;98866.91;;;10.25;88.01
11912;BME280;6016;41.928;25.556;2024-03-06T01:07:22;98862.31;;;10.27;88.65
11912;BME280;6016;41.928;25.556;2024-03-06T01:09:49;98712.97;;;9.33;87.66
11912;BME280;6016;41.928;25.556;2024-03-06T01:12:15;98849.31;;;10.16;87.50
11912;BME280;6016;41.928;25.556;2024-03-06T01:14:43;98874.78;;;10.35;87.77
11912;BME280;6016;41.928;25.556;2024-03-06T01:17:10;98866.88;;;10.35;88.09
11912;BME280;6016;41.928;25.556;2024-03-06T01:19:39;98874.66;;;10.37;87.37
11912;BME280;6016;41.928;25.556;2024-03-06T01:22:06;98874.91;;;10.34;86.79
11912;BME280;6016;41.928;25.556;2024-03-06T01:24:33;98825.19;;;10.01;86.81
11912;BME280;6016;41.928;25.556;2024-03-06T01:27:00;98882.25;;;10.40;87.24
11912;BME280;6016;41.928;25.556;2024-03-06T01:29:28;98884.28;;;10.08;86.58
11912;BME280;6016;41.928;25.556;2024-03-06T01:31:55;98847.56;;;9.97;86.43
11912;BME280;6016;41.928;25.556;2024-03-06T01:34:22;98890.16;;;10.40;86.09
11912;BME280;6016;41.928;25.556;2024-03-06T01:36:50;98855.38;;;10.26;86.80
11912;BME280;6016;41.928;25.556;2024-03-06T01:39:17;98883.50;;;10.36;86.31
11912;BME280;6016;41.928;25.556;2024-03-06T01:41:47;98869.00;;;10.22;86.53
11912;BME280;6016;41.928;25.556;2024-03-06T01:44:14;98845.56;;;10.09;85.62
11912;BME280;6016;41.928;25.556;2024-03-06T01:46:42;98891.41;;;10.36;85.96
11912;BME280;6016;41.928;25.556;2024-03-06T01:49:11;98865.53;;;10.11;85.90
11912;BME280;6016;41.928;25.556;2024-03-06T01:51:39;98892.56;;;10.23;85.69
11912;BME280;6016;41.928;25.556;2024-03-06T01:54:08;98893.53;;;10.22;86.12
11912;BME280;6016;41.928;25.556;2024-03-06T01:56:36;98801.44;;;9.53;86.17
11912;BME280;6016;41.928;25.556;2024-03-06T01:59:04;98914.06;;;10.28;86.70
11912;BME280;6016;41.928;25.556;2024-03-06T02:01:32;98906.44;;;10.25;87.06
11912;BME280;6016;41.928;25.556;2024-03-06T02:04:00;98913.63;;;10.33;86.62
11912;BME280;6016;41.928;25.556;2024-03-06T02:06:28;98883.53;;;10.26;85.93
11912;BME280;6016;41.928;25.556;2024-03-06T02:08:56;98912.22;;;10.39;86.09
11912;BME280;6016;41.928;25.556;2024-03-06T02:11:24;98858.34;;;10.04;85.13
11912;BME280;6016;41.928;25.556;2024-03-06T02:13:51;98923.75;;;10.38;85.82
11912;BME280;6016;41.928;25.556;2024-03-06T02:16:18;98898.78;;;10.22;85.04
11912;BME280;6016;41.928;25.556;2024-03-06T02:18:51;98923.75;;;10.38;85.18
11912;BME280;6016;41.928;25.556;2024-03-06T02:21:21;98921.13;;;10.28;86.21
11912;BME280;6016;41.928;25.556;2024-03-06T02:23:48;98686.44;;;8.86;86.09
11912;BME280;6016;41.928;25.556;2024-03-06T02:26:16;98920.41;;;10.36;86.16
11912;BME280;6016;41.928;25.556;2024-03-06T02:28:47;98917.63;;;10.37;86.01
11912;BME280;6016;41.928;25.556;2024-03-06T02:31:15;98873.59;;;10.00;85.58
11912;BME280;6016;41.928;25.556;2024-03-06T02:33:43;98921.38;;;10.35;85.08
11912;BME280;6016;41.928;25.556;2024-03-06T02:36:10;98915.44;;;10.33;84.91
11912;BME280;6016;41.928;25.556;2024-03-06T02:38:38;98922.66;;;10.31;85.19
11912;BME280;6016;41.928;25.556;2024-03-06T02:41:05;98847.44;;;9.79;85.45
11912;BME280;6016;41.928;25.556;2024-03-06T02:43:33;98879.03;;;9.89;84.68
11912;BME280;6016;41.928;25.556;2024-03-06T02:46:00;98900.09;;;9.98;86.42
11912;BME280;6016;41.928;25.556;2024-03-06T02:48:27;98919.41;;;9.89;87.26
11912;BME280;6016;41.928;25.556;2024-03-06T02:50:55;98894.56;;;9.82;87.16
11912;BME280;6016;41.928;25.556;2024-03-06T02:53:22;98924.09;;;10.05;87.47
11912;BME280;6016;41.928;25.556;2024-03-06T02:55:52;98864.50;;;9.75;86.37
11912;BME280;6016;41.928;25.556;2024-03-06T02:58:19;98924.91;;;10.16;86.94
11912;BME280;6016;41.928;25.556;2024-03-06T03:00:46;98896.63;;;9.98;85.64
11912;BME280;6016;41.928;25.556;2024-03-06T03:03:13;98929.19;;;10.17;86.05
11912;BME280;6016;41.928;25.556;2024-03-06T03:05:40;98907.72;;;10.02;85.98
11912;BME280;6016;41.928;25.556;2024-03-06T03:08:07;98941.56;;;10.16;85.80
11912;BME280;6016;41.928;25.556;2024-03-06T03:10:34;98879.44;;;9.84;86.30
11912;BME280;6016;41.928;25.556;2024-03-06T03:13:04;98941.13;;;10.21;85.85
11912;BME280;6016;41.928;25.556;2024-03-06T03:15:31;98938.78;;;10.18;86.10
11912;BME280;6016;41.928;25.556;2024-03-06T03:17:58;98864.94;;;9.70;85.93
11912;BME280;6016;41.928;25.556;2024-03-06T03:20:25;98890.84;;;9.84;85.91
11912;BME280;6016;41.928;25.556;2024-03-06T03:22:53;98937.38;;;10.13;86.19
11912;BME280;6016;41.928;25.556;2024-03-06T03:25:20;98938.22;;;10.04;86.85
11912;BME280;6016;41.928;25.556;2024-03-06T03:27:47;98943.66;;;10.03;86.86
11912;BME280;6016;41.928;25.556;2024-03-06T03:30:16;98938.22;;;10.04;86.91
11912;BME280;6016;41.928;25.556;2024-03-06T03:32:47;98943.34;;;10.06;87.40
11912;BME280;6016;41.928;25.556;2024-03-06T03:35:14;98918.25;;;9.92;87.18
11912;BME280;6016;41.928;25.556;2024-03-06T03:37:42;98942.25;;;10.08;86.20
11912;BME280;6016;41.928;25.556;2024-03-06T03:40:10;98935.47;;;10.06;86.50
11912;BME280;6016;41.928;25.556;2024-03-06T03:42:37;98712.59;;;8.68;86.77
11912;BME280;6016;41.928;25.556;2024-03-06T03:45:05;98938.78;;;10.08;86.72
11912;BME280;6016;41.928;25.556;2024-03-06T03:47:33;98933.50;;;10.08;87.02
11912;BME280;6016;41.928;25.556;2024-03-06T03:50:00;98936.56;;;10.03;86.30
11912;BME280;6016;41.928;25.556;2024-03-06T03:52:28;98719.34;;;8.61;87.42
11912;BME280;6016;41.928;25.556;2024-03-06T03:54:55;98918.28;;;9.82;87.28
11912;BME280;6016;41.928;25.556;2024-03-06T03:57:22;98946.03;;;9.86;87.91
11912;BME280;6016;41.928;25.556;2024-03-06T03:59:49;98824.63;;;9.10;88.55
11912;BME280;6016;41.928;25.556;2024-03-06T04:02:17;98922.72;;;9.71;88.19
11912;BME280;6016;41.928;25.556;2024-03-06T04:04:46;98869.22;;;9.32;88.00
11912;BME280;6016;41.928;25.556;2024-03-06T04:07:16;98954.88;;;9.85;89.37
11912;BME280;6016;41.928;25.556;2024-03-06T04:09:44;98957.38;;;9.96;89.31
11912;BME280;6016;41.928;25.556;2024-03-06T04:12:11;98966.25;;;10.05;89.27
11912;BME280;6016;41.928;25.556;2024-03-06T04:14:38;98888.59;;;9.60;88.49
11912;BME280;6016;41.928;25.556;2024-03-06T04:17:05;98965.56;;;10.13;88.49
11912;BME280;6016;41.928;25.556;2024-03-06T04:19:32;98970.13;;;10.11;88.00
11912;BME280;6016;41.928;25.556;2024-03-06T04:22:00;98977.75;;;10.14;88.18
11912;BME280;6016;41.928;25.556;2024-03-06T04:24:28;98852.31;;;9.44;88.03
11912;BME280;6016;41.928;25.556;2024-03-06T04:26:55;98983.28;;;10.11;87.90
11912;BME280;6016;41.928;25.556;2024-03-06T04:29:22;98972.47;;;10.24;87.31
11912;BME280;6016;41.928;25.556;2024-03-06T04:31:49;98982.72;;;10.27;86.45
11912;BME280;6016;41.928;25.556;2024-03-06T04:34:16;98983.41;;;10.29;86.23
11912;BME280;6016;41.928;25.556;2024-03-06T04:36:43;98932.69;;;9.97;86.11
11912;BME280;6016;41.928;25.556;2024-03-06T04:39:11;98992.16;;;10.30;86.35
11912;BME280;6016;41.928;25.556;2024-03-06T04:41:38;98992.84;;;10.32;85.99
11912;BME280;6016;41.928;25.556;2024-03-06T04:44:06;98960.13;;;10.14;85.73
11912;BME280;6016;41.928;25.556;2024-03-06T04:46:32;98969.97;;;10.22;86.12
11912;BME280;6016;41.928;25.556;2024-03-06T04:49:00;98998.25;;;10.40;87.64
11912;BME280;6016;41.928;25.556;2024-03-06T04:51:26;98995.78;;;10.28;86.80
11912;BME280;6016;41.928;25.556;2024-03-06T04:53:53;99002.59;;;10.31;86.97
11912;BME280;6016;41.928;25.556;2024-03-06T04:56:22;98997.41;;;10.39;86.97
11912;BME280;6016;41.928;25.556;2024-03-06T04:58:49;99001.03;;;10.48;87.58
11912;BME280;6016;41.928;25.556;2024-03-06T05:01:17;99014.38;;;10.47;86.40
11912;BME280;6016;41.928;25.556;2024-03-06T05:03:44;99010.22;;;10.44;86.52
11912;BME280;6016;41.928;25.556;2024-03-06T05:06:11;99010.91;;;10.36;85.63
11912;BME280;6016;41.928;25.556;2024-03-06T05:08:38;99023.69;;;10.41;86.41
11912;BME280;6016;41.928;25.556;2024-03-06T05:11:05;99035.31;;;10.38;84.57
11912;BME280;6016;41.928;25.556;2024-03-06T05:13:34;99023.97;;;10.48;85.22
11912;BME280;6016;41.928;25.556;2024-03-06T05:16:01;99023.13;;;10.47;85.42
11912;BME280;6016;41.928;25.556;2024-03-06T05:18:28;99021.31;;;10.48;85.08
11912;BME280;6016;41.928;25.556;2024-03-06T05:20:55;99020.63;;;10.46;85.23
11912;BME280;6016;41.928;25.556;2024-03-06T05:23:22;98985.66;;;10.24;86.77
11912;BME280;6016;41.928;25.556;2024-03-06T05:25:49;98938.78;;;9.98;85.90
11912;BME280;6016;41.928;25.556;2024-03-06T05:28:16;99022.81;;;10.40;85.91
11912;BME280;6016;41.928;25.556;2024-03-06T05:30:45;99024.19;;;10.35;87.22
11912;BME280;6016;41.928;25.556;2024-03-06T05:33:13;99024.06;;;10.36;87.96
11912;BME280;6016;41.928;25.556;2024-03-06T05:35:40;99034.06;;;10.33;87.23
11912;BME280;6016;41.928;25.556;2024-03-06T05:38:08;99033.78;;;10.55;86.42
11912;BME280;6016;41.928;25.556;2024-03-06T05:40:35;99027.56;;;10.57;85.66
11912;BME280;6016;41.928;25.556;2024-03-06T05:43:04;99037.53;;;10.53;86.91
11912;BME280;6016;41.928;25.556;2024-03-06T05:45:31;99033.78;;;10.55;86.15
11912;BME280;6016;41.928;25.556;2024-03-06T05:47:59;99045.88;;;10.58;86.92
11912;BME280;6016;41.928;25.556;2024-03-06T05:50:26;98966.94;;;10.17;87.01
11912;BME280;6016;41.928;25.556;2024-03-06T05:52:53;99037.13;;;10.58;87.17
11912;BME280;6016;41.928;25.556;2024-03-06T05:55:21;99041.97;;;10.62;87.21
11912;BME280;6016;41.928;25.556;2024-03-06T05:57:48;99016.19;;;10.26;87.05
11912;BME280;6016;41.928;25.556;2024-03-06T06:00:16;98926.59;;;9.97;86.75
11912;BME280;6016;41.928;25.556;2024-03-06T06:02:43;99039.63;;;10.59;86.15
11912;BME280;6016;41.928;25.556;2024-03-06T06:05:13;99036.47;;;10.46;87.47
11912;BME280;6016;41.928;25.556;2024-03-06T06:07:43;99048.66;;;10.57;87.10
11912;BME280;6016;41.928;25.556;2024-03-06T06:10:09;99031.75;;;10.49;87.34
11912;BME280;6016;41.928;25.556;2024-03-06T06:12:36;98989.13;;;10.44;86.47
11912;BME280;6016;41.928;25.556;2024-03-06T06:15:04;99049.31;;;10.78;87.23
11912;BME280;6016;41.928;25.556;2024-03-06T06:17:32;98971.22;;;10.18;85.92
11912;BME280;6016;41.928;25.556;2024-03-06T06:20:00;99026.94;;;10.82;86.03
11912;BME280;6016;41.928;25.556;2024-03-06T06:22:28;98853.94;;;9.94;86.48
11912;BME280;6016;41.928;25.556;2024-03-06T06:24:56;99020.63;;;11.03;86.06
11912;BME280;6016;41.928;25.556;2024-03-06T06:27:23;99049.50;;;11.43;84.28
11912;BME280;6016;41.928;25.556;2024-03-06T06:29:50;98951.66;;;10.88;84.48
11912;BME280;6016;41.928;25.556;2024-03-06T06:32:20;99046.63;;;11.36;83.81
11912;BME280;6016;41.928;25.556;2024-03-06T06:34:47;99062.34;;;11.56;84.00
11912;BME280;6016;41.928;25.556;2024-03-06T06:37:14;99006.28;;;11.06;84.36
11912;BME280;6016;41.928;25.556;2024-03-06T06:39:42;98944.03;;;10.85;84.18
11912;BME280;6016;41.928;25.556;2024-03-06T06:42:09;99057.28;;;11.72;85.02
11912;BME280;6016;41.928;25.556;2024-03-06T06:44:37;99069.56;;;11.81;83.78
11912;BME280;6016;41.928;25.556;2024-03-06T06:47:04;99069.06;;;11.78;83.26
11912;BME280;6016;41.928;25.556;2024-03-06T06:49:32;99006.56;;;11.40;83.82
11912;BME280;6016;41.928;25.556;2024-03-06T06:51:59;98947.34;;;11.15;83.95
11912;BME280;6016;41.928;25.556;2024-03-06T06:54:26;99028.69;;;12.40;84.47
11912;BME280;6016;41.928;25.556;2024-03-06T06:56:55;99073.47;;;13.74;79.53
11912;BME280;6016;41.928;25.556;2024-03-06T06:59:22;99076.41;;;14.22;76.05
11912;BME280;6016;41.928;25.556;2024-03-06T07:01:49;99084.53;;;14.62;74.51
11912;BME280;6016;41.928;25.556;2024-03-06T07:04:18;99086.81;;;15.15;72.02
11912;BME280;6016;41.928;25.556;2024-03-06T07:06:45;99058.53;;;15.70;70.44
11912;BME280;6016;41.928;25.556;2024-03-06T07:09:12;99088.13;;;16.92;65.36
11912;BME280;6016;41.928;25.556;2024-03-06T07:11:41;99084.25;;;18.00;61.70
11912;BME280;6016;41.928;25.556;2024-03-06T07:14:12;98515.66;;;14.61;60.66
11912;BME280;6016;41.928;25.556;2024-03-06T07:16:42;99091.00;;;19.11;57.92
11912;BME280;6016;41.928;25.556;2024-03-06T07:19:09;99029.13;;;19.15;56.26
11912;BME280;6016;41.928;25.556;2024-03-06T07:21:36;99089.13;;;18.55;57.10
11912;BME280;6016;41.928;25.556;2024-03-06T07:24:05;99119.28;;;17.30;61.19
11912;BME280;6016;41.928;25.556;2024-03-06T07:26:32;99063.91;;;16.25;64.69
11912;BME280;6016;41.928;25.556;2024-03-06T07:29:00;99086.72;;;15.56;66.74
11912;BME280;6016;41.928;25.556;2024-03-06T07:31:28;99025.97;;;14.88;69.60
11912;BME280;6016;41.928;25.556;2024-03-06T07:33:55;99056.38;;;15.74;69.91
11912;BME280;6016;41.928;25.556;2024-03-06T07:36:22;99081.13;;;17.44;64.61
11912;BME280;6016;41.928;25.556;2024-03-06T07:38:49;99084.97;;;18.09;61.87
11912;BME280;6016;41.928;25.556;2024-03-06T07:41:16;99001.50;;;18.00;60.64
11912;BME280;6016;41.928;25.556;2024-03-06T07:43:43;99081.63;;;18.44;59.86
11912;BME280;6016;41.928;25.556;2024-03-06T07:46:10;99072.19;;;17.52;61.91
11912;BME280;6016;41.928;25.556;2024-03-06T07:48:41;99017.13;;;16.69;62.39
11912;BME280;6016;41.928;25.556;2024-03-06T07:51:09;99051.69;;;16.54;64.29
11912;BME280;6016;41.928;25.556;2024-03-06T07:53:36;99067.88;;;16.29;65.06
11912;BME280;6016;41.928;25.556;2024-03-06T07:56:04;99061.47;;;16.15;64.72
11912;BME280;6016;41.928;25.556;2024-03-06T07:58:31;99061.75;;;15.97;65.46
11912;BME280;6016;41.928;25.556;2024-03-06T08:00:58;99067.78;;;15.83;67.38
11912;BME280;6016;41.928;25.556;2024-03-06T08:03:25;99070.28;;;15.84;68.11
11912;BME280;6016;41.928;25.556;2024-03-06T08:05:54;99077.81;;;15.72;67.83
11912;BME280;6016;41.928;25.556;2024-03-06T08:08:21;99083.06;;;15.89;67.78
11912;BME280;6016;41.928;25.556;2024-03-06T08:10:49;99074.66;;;16.09;66.99
11912;BME280;6016;41.928;25.556;2024-03-06T08:13:16;99026.50;;;15.64;67.26
11912;BME280;6016;41.928;25.556;2024-03-06T08:15:44;98887.53;;;14.91;68.54
11912;BME280;6016;41.928;25.556;2024-03-06T08:18:12;99083.69;;;16.69;64.37
11912;BME280;6016;41.928;25.556;2024-03-06T08:20:40;99071.72;;;16.88;64.42
11912;BME280;6016;41.928;25.556;2024-03-06T08:23:08;99041.97;;;17.45;64.28
11912;BME280;6016;41.928;25.556;2024-03-06T08:25:35;99038.97;;;17.70;61.65
11912;BME280;6016;41.928;25.556;2024-03-06T08:28:03;99085.50;;;17.82;61.05
11912;BME280;6016;41.928;25.556;2024-03-06T08:30:31;99091.69;;;17.53;61.60
11912;BME280;6016;41.928;25.556;2024-03-06T08:32:58;99023.22;;;17.08;61.92
11912;BME280;6016;41.928;25.556;2024-03-06T08:35:26;99049.81;;;16.93;60.88
11912;BME280;6016;41.928;25.556;2024-03-06T08:37:53;99096.59;;;16.96;63.29
11912;BME280;6016;41.928;25.556;2024-03-06T08:40:21;99072.25;;;16.60;61.98
11912;BME280;6016;41.928;25.556;2024-03-06T08:42:51;99050.75;;;16.47;63.59
11912;BME280;6016;41.928;25.556;2024-03-06T08:45:18;99087.13;;;16.78;64.72
11912;BME280;6016;41.928;25.556;2024-03-06T08:47:46;99086.53;;;17.36;63.13
11912;BME280;6016;41.928;25.556;2024-03-06T08:50:13;99093.75;;;17.88;60.17
11912;BME280;6016;41.928;25.556;2024-03-06T08:52:40;99089.94;;;18.12;59.69
11912;BME280;6016;41.928;25.556;2024-03-06T08:55:08;99061.88;;;18.01;58.36
11912;BME280;6016;41.928;25.556;2024-03-06T08:57:37;99083.00;;;18.18;60.03
11912;BME280;6016;41.928;25.556;2024-03-06T09:00:06;99049.75;;;17.47;59.92
11912;BME280;6016;41.928;25.556;2024-03-06T09:02:36;99103.38;;;17.22;60.68
11912;BME280;6016;41.928;25.556;2024-03-06T09:05:04;98889.78;;;15.58;62.00
11912;BME280;6016;41.928;25.556;2024-03-06T09:07:31;99093.50;;;16.69;62.70
11912;BME280;6016;41.928;25.556;2024-03-06T09:10:03;99036.34;;;16.18;63.56
11912;BME280;6016;41.928;25.556;2024-03-06T09:12:31;98527.94;;;12.73;63.12
11912;BME280;6016;41.928;25.556;2024-03-06T09:15:00;99012.06;;;15.58;62.96
11912;BME280;6016;41.928;25.556;2024-03-06T09:17:28;99094.94;;;16.10;65.64
11912;BME280;6016;41.928;25.556;2024-03-06T09:19:55;99067.03;;;15.66;64.66
11912;BME280;6016;41.928;25.556;2024-03-06T09:22:22;99072.16;;;15.75;66.85
11912;BME280;6016;41.928;25.556;2024-03-06T09:24:49;99091.88;;;15.89;67.80
11912;BME280;6016;41.928;25.556;2024-03-06T09:27:17;99082.84;;;15.67;67.65
11912;BME280;6016;41.928;25.556;2024-03-06T09:29:44;99095.78;;;15.70;67.56
11912;BME280;6016;41.928;25.556;2024-03-06T09:32:12;99092.47;;;15.68;69.24
11912;BME280;6016;41.928;25.556;2024-03-06T09:34:41;99099.94;;;15.73;68.34
11912;BME280;6016;41.928;25.556;2024-03-06T09:37:10;99036.16;;;15.25;68.05
11912;BME280;6016;41.928;25.556;2024-03-06T09:39:37;99053.06;;;15.32;68.27
11912;BME280;6016;41.928;25.556;2024-03-06T09:42:04;99092.19;;;15.55;68.75
11912;BME280;6016;41.928;25.556;2024-03-06T09:44:32;99048.13;;;15.21;68.60
11912;BME280;6016;41.928;25.556;2024-03-06T09:47:02;99022.41;;;15.13;68.72
11912;BME280;6016;41.928;25.556;2024-03-06T09:49:31;99061.91;;;15.24;68.48
11912;BME280;6016;41.928;25.556;2024-03-06T09:51:59;99092.41;;;15.45;67.49
11912;BME280;6016;41.928;25.556;2024-03-06T09:54:26;99096.25;;;15.34;65.59
11912;BME280;6016;41.928;25.556;2024-03-06T09:56:54;99092.13;;;15.31;65.97
11912;BME280;6016;41.928;25.556;2024-03-06T09:59:24;99105.13;;;15.10;65.76
11912;BME280;6016;41.928;25.556;2024-03-06T10:01:54;99083.69;;;15.03;65.49
11912;BME280;6016;41.928;25.556;2024-03-06T10:04:23;99099.91;;;15.33;66.35
11912;BME280;6016;41.928;25.556;2024-03-06T10:06:55;99098.22;;;15.49;63.69
11912;BME280;6016;41.928;25.556;2024-03-06T10:09:23;99027.56;;;15.14;63.19
11912;BME280;6016;41.928;25.556;2024-03-06T10:11:50;99076.25;;;15.46;66.46
11912;BME280;6016;41.928;25.556;2024-03-06T10:14:18;99081.81;;;15.68;66.04
11912;BME280;6016;41.928;25.556;2024-03-06T10:16:53;99104.34;;;15.89;66.48
11912;BME280;6016;41.928;25.556;2024-03-06T10:19:22;99088.78;;;16.09;66.01
11912;BME280;6016;41.928;25.556;2024-03-06T10:21:50;99063.47;;;16.13;64.84
11912;BME280;6016;41.928;25.556;2024-03-06T10:24:20;99084.06;;;16.20;63.15
11912;BME280;6016;41.928;25.556;2024-03-06T10:26:49;99081.09;;;15.91;62.91
11912;BME280;6016;41.928;25.556;2024-03-06T10:29:18;99081.38;;;15.96;63.70
11912;BME280;6016;41.928;25.556;2024-03-06T10:31:51;99078.16;;;16.09;64.08
11912;BME280;6016;41.928;25.556;2024-03-06T10:34:17;99073.47;;;16.11;66.20
11912;BME280;6016;41.928;25.556;2024-03-06T10:36:45;99013.53;;;16.00;64.46
11912;BME280;6016;41.928;25.556;2024-03-06T10:39:12;99067.31;;;16.57;62.04
11912;BME280;6016;41.928;25.556;2024-03-06T10:41:43;99071.81;;;16.57;62.84
11912;BME280;6016;41.928;25.556;2024-03-06T10:44:12;99063.00;;;16.56;62.41
11912;BME280;6016;41.928;25.556;2024-03-06T10:46:44;99000.03;;;16.25;63.86
11912;BME280;6016;41.928;25.556;2024-03-06T10:49:13;99024.81;;;16.26;63.63
11912;BME280;6016;41.928;25.556;2024-03-06T10:51:42;99042.84;;;16.39;61.17
11912;BME280;6016;41.928;25.556;2024-03-06T10:54:10;99057.50;;;16.58;63.12
11912;BME280;6016;41.928;25.556;2024-03-06T10:56:40;99059.25;;;16.66;63.19
11912;BME280;6016;41.928;25.556;2024-03-06T10:59:10;99049.94;;;16.47;63.35
11912;BME280;6016;41.928;25.556;2024-03-06T11:01:39;98911.69;;;15.60;62.45
11912;BME280;6016;41.928;25.556;2024-03-06T11:04:09;98853.50;;;15.18;62.15
11912;BME280;6016;41.928;25.556;2024-03-06T11:06:37;98903.19;;;15.65;63.08
11912;BME280;6016;41.928;25.556;2024-03-06T11:09:05;99046.97;;;16.80;61.98
11912;BME280;6016;41.928;25.556;2024-03-06T11:11:49;99003.53;;;16.79;61.26
11912;BME280;6016;41.928;25.556;2024-03-06T11:14:17;98844.59;;;15.96;61.41
11912;BME280;6016;41.928;25.556;2024-03-06T11:17:00;99045.06;;;16.88;57.41
11912;BME280;6016;41.928;25.556;2024-03-06T11:19:28;98916.50;;;15.88;61.89
11912;BME280;6016;41.928;25.556;2024-03-06T11:21:55;99035.19;;;16.59;61.94
11912;BME280;6016;41.928;25.556;2024-03-06T11:24:22;98942.66;;;16.23;60.67
11912;BME280;6016;41.928;25.556;2024-03-06T11:26:55;99027.16;;;17.12;60.24
11912;BME280;6016;41.928;25.556;2024-03-06T11:29:24;99015.69;;;17.27;60.11
11912;BME280;6016;41.928;25.556;2024-03-06T11:32:04;99020.97;;;17.42;59.79
11912;BME280;6016;41.928;25.556;2024-03-06T11:34:33;99016.31;;;17.29;61.15
11912;BME280;6016;41.928;25.556;2024-03-06T11:37:03;98993.53;;;17.11;60.26
11912;BME280;6016;41.928;25.556;2024-03-06T11:39:36;98991.59;;;17.20;60.38
11912;BME280;6016;41.928;25.556;2024-03-06T11:42:06;99012.81;;;17.43;59.13
11912;BME280;6016;41.928;25.556;2024-03-06T11:44:34;98972.19;;;17.26;58.90
11912;BME280;6016;41.928;25.556;2024-03-06T11:47:03;98842.09;;;16.33;57.19
11912;BME280;6016;41.928;25.556;2024-03-06T11:49:33;98971.38;;;17.26;58.73
11912;BME280;6016;41.928;25.556;2024-03-06T11:52:04;98978.72;;;17.24;57.41
11912;BME280;6016;41.928;25.556;2024-03-06T11:54:33;99004.53;;;17.38;59.64
11912;BME280;6016;41.928;25.556;2024-03-06T11:57:02;98999.00;;;17.40;60.63
11912;BME280;6016;41.928;25.556;2024-03-06T11:59:32;98947.69;;;17.53;58.26
11912;BME280;6016;41.928;25.556;2024-03-06T12:02:01;98969.41;;;17.93;58.04
11912;BME280;6016;41.928;25.556;2024-03-06T12:04:30;99002.06;;;18.10;56.05
11912;BME280;6016;41.928;25.556;2024-03-06T12:06:59;98968.16;;;18.11;52.38
11912;BME280;6016;41.928;25.556;2024-03-06T12:09:31;98981.91;;;18.08;51.43
11912;BME280;6016;41.928;25.556;2024-03-06T12:11:58;98989.16;;;17.77;51.18
11912;BME280;6016;41.928;25.556;2024-03-06T12:14:25;99026.19;;;17.65;52.39
11912;BME280;6016;41.928;25.556;2024-03-06T12:16:57;98997.47;;;18.04;51.00
11912;BME280;6016;41.928;25.556;2024-03-06T12:19:26;98999.72;;;18.29;51.83
11912;BME280;6016;41.928;25.556;2024-03-06T12:21:54;99008.91;;;18.48;51.13
11912;BME280;6016;41.928;25.556;2024-03-06T12:24:21;98962.25;;;18.44;50.13
11912;BME280;6016;41.928;25.556;2024-03-06T12:26:59;98990.41;;;18.18;54.35
11912;BME280;6016;41.928;25.556;2024-03-06T12:29:28;98971.81;;;17.88;54.14
11912;BME280;6016;41.928;25.556;2024-03-06T12:31:57;98955.53;;;17.61;52.21
11912;BME280;6016;41.928;25.556;2024-03-06T12:34:24;98977.50;;;17.63;52.09
11912;BME280;6016;41.928;25.556;2024-03-06T12:36:51;98992.19;;;17.52;52.97
11912;BME280;6016;41.928;25.556;2024-03-06T12:39:18;98955.19;;;16.97;54.55
11912;BME280;6016;41.928;25.556;2024-03-06T12:41:48;98988.66;;;17.00;56.76
11912;BME280;6016;41.928;25.556;2024-03-06T12:44:16;98988.78;;;17.07;56.05
11912;BME280;6016;41.928;25.556;2024-03-06T12:46:43;98935.91;;;16.65;55.70
11912;BME280;6016;41.928;25.556;2024-03-06T12:49:11;98994.53;;;17.25;54.84
11912;BME280;6016;41.928;25.556;2024-03-06T12:51:38;98993.88;;;17.38;54.72
11912;BME280;6016;41.928;25.556;2024-03-06T12:54:05;99003.31;;;17.56;54.99
11912;BME280;6016;41.928;25.556;2024-03-06T12:56:34;98995.63;;;17.68;55.50
11912;BME280;6016;41.928;25.556;2024-03-06T12:59:01;98960.19;;;17.52;55.66
11912;BME280;6016;41.928;25.556;2024-03-06T13:01:28;98998.75;;;17.71;56.01
11912;BME280;6016;41.928;25.556;2024-03-06T13:03:55;99000.00;;;17.76;55.33
11912;BME280;6016;41.928;25.556;2024-03-06T13:06:24;99002.84;;;17.52;56.49